sensor_id;sensor_type;location;lat;lon;timestamp;temperature;humidity
79030;DHT22;68511;51.146;7.012;2023-12-28T00:00:57;14.10;61.00
79030;DHT22;68511;51.146;7.012;2023-12-28T00:01:58;14.10;61.00
79030;DHT22;68511;51.146;7.012;2023-12-28T00:02:58;14.10;61.00
79030;DHT22;68511;51.146;7.012;2023-12-28T00:03:59;14.10;61.00
79030;DHT22;68511;51.146;7.012;2023-12-28T00:04:59;14.10;61.00
79030;DHT22;68511;51.146;7.012;2023-12-28T00:06:00;14.10;61.00
79030;DHT22;68511;51.146;7.012;2023-12-28T00:07:02;14.10;61.00
79030;DHT22;68511;51.146;7.012;2023-12-28T00:08:02;14.10;61.00
79030;DHT22;68511;51.146;7.012;2023-12-28T00:09:03;14.10;61.00
79030;DHT22;68511;51.146;7.012;2023-12-28T00:10:04;14.10;61.00
79030;DHT22;68511;51.146;7.012;2023-12-28T00:11:04;14.10;61.00
79030;DHT22;68511;51.146;7.012;2023-12-28T00:12:05;14.10;61.00
79030;DHT22;68511;51.146;7.012;2023-12-28T00:13:05;14.10;61.00
79030;DHT22;68511;51.146;7.012;2023-12-28T00:14:06;14.10;61.00
79030;DHT22;68511;51.146;7.012;2023-12-28T00:15:06;14.10;61.00
79030;DHT22;68511;51.146;7.012;2023-12-28T00:16:07;14.10;61.00
79030;DHT22;68511;51.146;7.012;2023-12-28T00:17:07;14.10;61.00
79030;DHT22;68511;51.146;7.012;2023-12-28T00:18:08;14.10;61.00
79030;DHT22;68511;51.146;7.012;2023-12-28T00:19:08;14.10;61.00
79030;DHT22;68511;51.146;7.012;2023-12-28T00:20:09;14.10;61.00
79030;DHT22;68511;51.146;7.012;2023-12-28T00:21:09;14.10;61.00
79030;DHT22;68511;51.146;7.012;2023-12-28T00:22:10;14.10;61.00
79030;DHT22;68511;51.146;7.012;2023-12-28T00:23:10;14.10;61.00
79030;DHT22;68511;51.146;7.012;2023-12-28T00:24:11;14.10;61.00
79030;DHT22;68511;51.146;7.012;2023-12-28T00:25:11;14.10;61.00
79030;DHT22;68511;51.146;7.012;2023-12-28T00:26:12;14.10;61.00
79030;DHT22;68511;51.146;7.012;2023-12-28T00:27:12;14.10;61.70
79030;DHT22;68511;51.146;7.012;2023-12-28T00:28:12;14.10;61.00
79030;DHT22;68511;51.146;7.012;2023-12-28T00:29:13;14.10;61.00
79030;DHT22;68511;51.146;7.012;2023-12-28T00:30:13;14.10;61.10
79030;DHT22;68511;51.146;7.012;2023-12-28T00:31:14;14.10;61.10
79030;DHT22;68511;51.146;7.012;2023-12-28T00:32:14;14.10;61.10
79030;DHT22;68511;51.146;7.012;2023-12-28T00:33:16;14.10;61.00
79030;DHT22;68511;51.146;7.012;2023-12-28T00:34:16;14.10;61.00
79030;DHT22;68511;51.146;7.012;2023-12-28T00:35:17;14.10;61.00
79030;DHT22;68511;51.146;7.012;2023-12-28T00:36:17;14.10;61.00
79030;DHT22;68511;51.146;7.012;2023-12-28T00:37:18;14.10;61.00
79030;DHT22;68511;51.146;7.012;2023-12-28T00:38:18;14.10;61.00
79030;DHT22;68511;51.146;7.012;2023-12-28T00:39:19;14.10;61.00
79030;DHT22;68511;51.146;7.012;2023-12-28T00:40:19;14.00;60.90
79030;DHT22;68511;51.146;7.012;2023-12-28T00:41:20;14.00;60.90
79030;DHT22;68511;51.146;7.012;2023-12-28T00:42:20;14.00;61.00
79030;DHT22;68511;51.146;7.012;2023-12-28T00:43:21;14.10;61.10
79030;DHT22;68511;51.146;7.012;2023-12-28T00:44:21;14.10;61.10
79030;DHT22;68511;51.146;7.012;2023-12-28T00:45:22;14.10;61.00
79030;DHT22;68511;51.146;7.012;2023-12-28T00:46:22;14.10;61.00
79030;DHT22;68511;51.146;7.012;2023-12-28T00:47:22;14.00;60.90
79030;DHT22;68511;51.146;7.012;2023-12-28T00:48:23;14.10;61.10
79030;DHT22;68511;51.146;7.012;2023-12-28T00:49:23;14.10;61.00
79030;DHT22;68511;51.146;7.012;2023-12-28T00:50:24;14.10;61.00
79030;DHT22;68511;51.146;7.012;2023-12-28T00:51:27;14.10;61.00
79030;DHT22;68511;51.146;7.012;2023-12-28T00:52:27;14.10;61.10
79030;DHT22;68511;51.146;7.012;2023-12-28T00:53:28;14.10;61.10
79030;DHT22;68511;51.146;7.012;2023-12-28T00:54:28;14.10;61.10
79030;DHT22;68511;51.146;7.012;2023-12-28T00:55:29;14.10;61.10
79030;DHT22;68511;51.146;7.012;2023-12-28T00:56:29;14.00;61.00
79030;DHT22;68511;51.146;7.012;2023-12-28T00:57:30;14.10;61.10
79030;DHT22;68511;51.146;7.012;2023-12-28T00:58:30;14.10;61.10
79030;DHT22;68511;51.146;7.012;2023-12-28T00:59:30;14.10;61.00
79030;DHT22;68511;51.146;7.012;2023-12-28T01:00:31;14.10;61.10
79030;DHT22;68511;51.146;7.012;2023-12-28T01:01:31;14.10;61.00
79030;DHT22;68511;51.146;7.012;2023-12-28T01:02:32;14.00;60.90
79030;DHT22;68511;51.146;7.012;2023-12-28T01:03:32;14.10;61.10
79030;DHT22;68511;51.146;7.012;2023-12-28T01:04:33;14.10;61.10
79030;DHT22;68511;51.146;7.012;2023-12-28T01:05:33;14.00;61.00
79030;DHT22;68511;51.146;7.012;2023-12-28T01:06:34;14.00;61.00
79030;DHT22;68511;51.146;7.012;2023-12-28T01:07:34;14.00;61.00
79030;DHT22;68511;51.146;7.012;2023-12-28T01:08:35;14.00;61.00
79030;DHT22;68511;51.146;7.012;2023-12-28T01:09:35;14.10;61.10
79030;DHT22;68511;51.146;7.012;2023-12-28T01:10:35;14.00;61.00
79030;DHT22;68511;51.146;7.012;2023-12-28T01:11:36;14.10;61.10
79030;DHT22;68511;51.146;7.012;2023-12-28T01:12:36;14.00;61.00
79030;DHT22;68511;51.146;7.012;2023-12-28T01:13:37;14.00;61.00
79030;DHT22;68511;51.146;7.012;2023-12-28T01:14:37;14.00;61.00
79030;DHT22;68511;51.146;7.012;2023-12-28T01:15:38;14.00;61.00
79030;DHT22;68511;51.146;7.012;2023-12-28T01:16:38;14.00;61.00
79030;DHT22;68511;51.146;7.012;2023-12-28T01:17:44;14.00;61.00
79030;DHT22;68511;51.146;7.012;2023-12-28T01:18:44;14.00;61.00
79030;DHT22;68511;51.146;7.012;2023-12-28T01:19:45;14.00;61.00
79030;DHT22;68511;51.146;7.012;2023-12-28T01:20:45;14.00;61.00
79030;DHT22;68511;51.146;7.012;2023-12-28T01:21:46;14.00;61.00
79030;DHT22;68511;51.146;7.012;2023-12-28T01:22:46;14.00;61.00
79030;DHT22;68511;51.146;7.012;2023-12-28T01:23:47;14.00;61.00
79030;DHT22;68511;51.146;7.012;2023-12-28T01:24:47;14.00;61.00
79030;DHT22;68511;51.146;7.012;2023-12-28T01:25:49;14.00;61.10
79030;DHT22;68511;51.146;7.012;2023-12-28T01:26:50;14.00;61.00
79030;DHT22;68511;51.146;7.012;2023-12-28T01:27:50;14.00;61.00
79030;DHT22;68511;51.146;7.012;2023-12-28T01:28:50;14.00;61.00
79030;DHT22;68511;51.146;7.012;2023-12-28T01:29:51;14.00;61.00
79030;DHT22;68511;51.146;7.012;2023-12-28T01:30:51;14.00;61.10
79030;DHT22;68511;51.146;7.012;2023-12-28T01:31:52;14.00;61.10
79030;DHT22;68511;51.146;7.012;2023-12-28T01:32:53;14.00;61.10
79030;DHT22;68511;51.146;7.012;2023-12-28T01:33:53;14.00;61.00
79030;DHT22;68511;51.146;7.012;2023-12-28T01:34:54;14.00;61.00
79030;DHT22;68511;51.146;7.012;2023-12-28T01:35:54;14.00;61.00
79030;DHT22;68511;51.146;7.012;2023-12-28T01:36:55;14.00;61.00
79030;DHT22;68511;51.146;7.012;2023-12-28T01:37:55;14.00;61.10
79030;DHT22;68511;51.146;7.012;2023-12-28T01:38:55;14.00;61.00
79030;DHT22;68511;51.146;7.012;2023-12-28T01:39:56;14.00;61.00
79030;DHT22;68511;51.146;7.012;2023-12-28T01:40:58;14.00;61.00
79030;DHT22;68511;51.146;7.012;2023-12-28T01:41:58;14.00;61.00
79030;DHT22;68511;51.146;7.012;2023-12-28T01:42:59;14.00;61.00
79030;DHT22;68511;51.146;7.012;2023-12-28T01:43:59;14.00;61.00
79030;DHT22;68511;51.146;7.012;2023-12-28T01:44:59;14.00;61.00
79030;DHT22;68511;51.146;7.012;2023-12-28T01:46:00;14.00;61.10
79030;DHT22;68511;51.146;7.012;2023-12-28T01:47:01;14.00;61.10
79030;DHT22;68511;51.146;7.012;2023-12-28T01:48:01;14.00;61.00
79030;DHT22;68511;51.146;7.012;2023-12-28T01:49:02;14.00;61.10
79030;DHT22;68511;51.146;7.012;2023-12-28T01:50:05;14.00;61.10
79030;DHT22;68511;51.146;7.012;2023-12-28T01:51:05;14.00;61.00
79030;DHT22;68511;51.146;7.012;2023-12-28T01:52:06;14.00;61.00
79030;DHT22;68511;51.146;7.012;2023-12-28T01:53:07;14.00;61.00
79030;DHT22;68511;51.146;7.012;2023-12-28T01:54:08;14.00;61.00
79030;DHT22;68511;51.146;7.012;2023-12-28T01:55:09;14.00;61.00
79030;DHT22;68511;51.146;7.012;2023-12-28T01:56:09;14.00;61.10
79030;DHT22;68511;51.146;7.012;2023-12-28T01:57:10;14.00;61.00
79030;DHT22;68511;51.146;7.012;2023-12-28T01:58:11;14.00;61.10
79030;DHT22;68511;51.146;7.012;2023-12-28T01:59:12;14.00;61.10
79030;DHT22;68511;51.146;7.012;2023-12-28T02:00:12;14.00;61.10
79030;DHT22;68511;51.146;7.012;2023-12-28T02:01:13;14.00;61.00
79030;DHT22;68511;51.146;7.012;2023-12-28T02:02:13;14.00;61.10
79030;DHT22;68511;51.146;7.012;2023-12-28T02:03:14;14.00;61.10
79030;DHT22;68511;51.146;7.012;2023-12-28T02:04:17;14.00;61.10
79030;DHT22;68511;51.146;7.012;2023-12-28T02:05:22;14.00;61.10
79030;DHT22;68511;51.146;7.012;2023-12-28T02:06:24;14.00;61.10
79030;DHT22;68511;51.146;7.012;2023-12-28T02:07:25;14.00;61.10
79030;DHT22;68511;51.146;7.012;2023-12-28T02:08:25;14.00;61.10
79030;DHT22;68511;51.146;7.012;2023-12-28T02:09:26;14.00;61.10
79030;DHT22;68511;51.146;7.012;2023-12-28T02:10:26;14.00;61.10
79030;DHT22;68511;51.146;7.012;2023-12-28T02:11:28;14.00;61.10
79030;DHT22;68511;51.146;7.012;2023-12-28T02:12:28;14.00;61.10
79030;DHT22;68511;51.146;7.012;2023-12-28T02:13:29;14.00;61.80
79030;DHT22;68511;51.146;7.012;2023-12-28T02:14:29;14.00;61.10
79030;DHT22;68511;51.146;7.012;2023-12-28T02:15:30;14.00;61.10
79030;DHT22;68511;51.146;7.012;2023-12-28T02:16:33;14.00;61.10
79030;DHT22;68511;51.146;7.012;2023-12-28T02:17:38;14.00;61.10
79030;DHT22;68511;51.146;7.012;2023-12-28T02:18:43;14.00;61.10
79030;DHT22;68511;51.146;7.012;2023-12-28T02:19:54;14.00;61.00
79030;DHT22;68511;51.146;7.012;2023-12-28T02:20:54;14.00;61.00
79030;DHT22;68511;51.146;7.012;2023-12-28T02:21:55;14.00;61.10
79030;DHT22;68511;51.146;7.012;2023-12-28T02:22:56;14.00;61.10
79030;DHT22;68511;51.146;7.012;2023-12-28T02:23:57;14.00;61.10
79030;DHT22;68511;51.146;7.012;2023-12-28T02:25:58;14.00;61.10
79030;DHT22;68511;51.146;7.012;2023-12-28T02:26:59;14.00;61.10
79030;DHT22;68511;51.146;7.012;2023-12-28T02:27:59;14.00;61.20
79030;DHT22;68511;51.146;7.012;2023-12-28T02:29:00;14.00;61.20
79030;DHT22;68511;51.146;7.012;2023-12-28T02:30:00;14.00;61.10
79030;DHT22;68511;51.146;7.012;2023-12-28T02:31:01;14.00;61.80
79030;DHT22;68511;51.146;7.012;2023-12-28T02:32:03;14.00;61.10
79030;DHT22;68511;51.146;7.012;2023-12-28T02:34:23;14.00;61.10
79030;DHT22;68511;51.146;7.012;2023-12-28T02:35:32;14.00;61.10
79030;DHT22;68511;51.146;7.012;2023-12-28T02:36:33;14.00;61.10
79030;DHT22;68511;51.146;7.012;2023-12-28T02:37:35;14.00;61.20
79030;DHT22;68511;51.146;7.012;2023-12-28T02:38:36;14.00;61.10
79030;DHT22;68511;51.146;7.012;2023-12-28T02:39:37;14.00;61.10
79030;DHT22;68511;51.146;7.012;2023-12-28T02:40:40;14.00;61.10
79030;DHT22;68511;51.146;7.012;2023-12-28T02:41:41;14.00;61.10
79030;DHT22;68511;51.146;7.012;2023-12-28T02:42:43;14.00;61.20
79030;DHT22;68511;51.146;7.012;2023-12-28T02:43:43;14.00;61.10
79030;DHT22;68511;51.146;7.012;2023-12-28T02:44:44;14.00;61.10
79030;DHT22;68511;51.146;7.012;2023-12-28T02:45:44;14.00;61.10
79030;DHT22;68511;51.146;7.012;2023-12-28T02:46:45;14.00;61.10
79030;DHT22;68511;51.146;7.012;2023-12-28T02:47:45;14.00;61.10
79030;DHT22;68511;51.146;7.012;2023-12-28T02:48:46;14.00;61.10
79030;DHT22;68511;51.146;7.012;2023-12-28T02:49:46;14.00;61.10
79030;DHT22;68511;51.146;7.012;2023-12-28T02:50:47;14.00;61.10
79030;DHT22;68511;51.146;7.012;2023-12-28T02:51:47;14.00;61.10
79030;DHT22;68511;51.146;7.012;2023-12-28T02:52:48;14.00;61.10
79030;DHT22;68511;51.146;7.012;2023-12-28T02:53:48;14.00;61.10
79030;DHT22;68511;51.146;7.012;2023-12-28T02:54:48;14.00;61.10
79030;DHT22;68511;51.146;7.012;2023-12-28T02:55:49;14.00;61.10
79030;DHT22;68511;51.146;7.012;2023-12-28T02:56:49;14.00;61.10
79030;DHT22;68511;51.146;7.012;2023-12-28T02:57:50;14.00;61.10
79030;DHT22;68511;51.146;7.012;2023-12-28T02:58:51;14.00;61.10
79030;DHT22;68511;51.146;7.012;2023-12-28T02:59:51;14.00;61.10
79030;DHT22;68511;51.146;7.012;2023-12-28T03:00:52;14.00;61.20
79030;DHT22;68511;51.146;7.012;2023-12-28T03:01:52;14.00;61.20
79030;DHT22;68511;51.146;7.012;2023-12-28T03:02:52;14.00;61.90
79030;DHT22;68511;51.146;7.012;2023-12-28T03:03:53;14.00;61.10
79030;DHT22;68511;51.146;7.012;2023-12-28T03:04:54;14.00;61.10
79030;DHT22;68511;51.146;7.012;2023-12-28T03:05:55;14.00;61.20
79030;DHT22;68511;51.146;7.012;2023-12-28T03:06:56;14.00;61.20
79030;DHT22;68511;51.146;7.012;2023-12-28T03:07:56;14.00;61.10
79030;DHT22;68511;51.146;7.012;2023-12-28T03:08:57;14.00;61.20
79030;DHT22;68511;51.146;7.012;2023-12-28T03:09:58;14.00;61.10
79030;DHT22;68511;51.146;7.012;2023-12-28T03:10:58;14.00;61.10
79030;DHT22;68511;51.146;7.012;2023-12-28T03:11:59;14.00;61.10
79030;DHT22;68511;51.146;7.012;2023-12-28T03:12:59;14.00;61.10
79030;DHT22;68511;51.146;7.012;2023-12-28T03:13:59;14.00;61.20
79030;DHT22;68511;51.146;7.012;2023-12-28T03:15:01;14.00;61.20
79030;DHT22;68511;51.146;7.012;2023-12-28T03:16:02;14.00;61.20
79030;DHT22;68511;51.146;7.012;2023-12-28T03:17:02;14.00;61.20
79030;DHT22;68511;51.146;7.012;2023-12-28T03:18:03;14.00;61.20
79030;DHT22;68511;51.146;7.012;2023-12-28T03:19:03;14.00;61.20
79030;DHT22;68511;51.146;7.012;2023-12-28T03:20:04;14.00;61.20
79030;DHT22;68511;51.146;7.012;2023-12-28T03:21:05;14.00;61.20
79030;DHT22;68511;51.146;7.012;2023-12-28T03:22:05;14.00;61.20
79030;DHT22;68511;51.146;7.012;2023-12-28T03:23:06;14.00;61.20
79030;DHT22;68511;51.146;7.012;2023-12-28T03:24:06;14.00;61.10
79030;DHT22;68511;51.146;7.012;2023-12-28T03:25:07;14.00;61.20
79030;DHT22;68511;51.146;7.012;2023-12-28T03:26:07;14.00;61.20
79030;DHT22;68511;51.146;7.012;2023-12-28T03:27:08;14.00;61.20
79030;DHT22;68511;51.146;7.012;2023-12-28T03:28:08;14.00;61.20
79030;DHT22;68511;51.146;7.012;2023-12-28T03:29:09;14.00;61.10
79030;DHT22;68511;51.146;7.012;2023-12-28T03:30:09;14.00;61.10
79030;DHT22;68511;51.146;7.012;2023-12-28T03:31:10;14.00;61.10
79030;DHT22;68511;51.146;7.012;2023-12-28T03:32:10;14.00;61.20
79030;DHT22;68511;51.146;7.012;2023-12-28T03:33:11;14.00;61.20
79030;DHT22;68511;51.146;7.012;2023-12-28T03:34:11;14.00;61.10
79030;DHT22;68511;51.146;7.012;2023-12-28T03:35:12;14.00;61.10
79030;DHT22;68511;51.146;7.012;2023-12-28T03:36:18;14.00;61.20
79030;DHT22;68511;51.146;7.012;2023-12-28T03:37:19;14.00;61.10
79030;DHT22;68511;51.146;7.012;2023-12-28T03:38:20;14.00;61.20
79030;DHT22;68511;51.146;7.012;2023-12-28T03:39:20;14.00;61.20
79030;DHT22;68511;51.146;7.012;2023-12-28T03:40:21;14.00;61.20
79030;DHT22;68511;51.146;7.012;2023-12-28T03:41:21;14.00;61.10
79030;DHT22;68511;51.146;7.012;2023-12-28T03:42:22;14.00;61.20
79030;DHT22;68511;51.146;7.012;2023-12-28T03:43:22;14.00;61.20
79030;DHT22;68511;51.146;7.012;2023-12-28T03:44:23;14.00;61.20
79030;DHT22;68511;51.146;7.012;2023-12-28T03:45:23;14.00;61.20
79030;DHT22;68511;51.146;7.012;2023-12-28T03:46:23;14.00;61.20
79030;DHT22;68511;51.146;7.012;2023-12-28T03:47:24;14.00;61.20
79030;DHT22;68511;51.146;7.012;2023-12-28T03:48:24;13.90;61.10
79030;DHT22;68511;51.146;7.012;2023-12-28T03:49:25;14.00;61.20
79030;DHT22;68511;51.146;7.012;2023-12-28T03:50:25;14.00;61.20
79030;DHT22;68511;51.146;7.012;2023-12-28T03:51:26;14.00;61.20
79030;DHT22;68511;51.146;7.012;2023-12-28T03:52:26;14.00;61.20
79030;DHT22;68511;51.146;7.012;2023-12-28T03:53:27;14.00;61.20
79030;DHT22;68511;51.146;7.012;2023-12-28T03:54:27;14.00;61.20
79030;DHT22;68511;51.146;7.012;2023-12-28T03:55:28;14.00;61.20
79030;DHT22;68511;51.146;7.012;2023-12-28T03:56:28;14.00;61.20
79030;DHT22;68511;51.146;7.012;2023-12-28T03:57:30;14.00;61.20
79030;DHT22;68511;51.146;7.012;2023-12-28T03:58:30;14.00;61.10
79030;DHT22;68511;51.146;7.012;2023-12-28T03:59:31;14.00;61.20
79030;DHT22;68511;51.146;7.012;2023-12-28T04:00:32;14.00;61.20
79030;DHT22;68511;51.146;7.012;2023-12-28T04:01:32;14.00;61.20
79030;DHT22;68511;51.146;7.012;2023-12-28T04:02:32;14.00;61.20
79030;DHT22;68511;51.146;7.012;2023-12-28T04:03:33;14.00;61.20
79030;DHT22;68511;51.146;7.012;2023-12-28T04:04:33;14.00;61.20
79030;DHT22;68511;51.146;7.012;2023-12-28T04:05:34;14.00;61.20
79030;DHT22;68511;51.146;7.012;2023-12-28T04:06:34;14.00;61.20
79030;DHT22;68511;51.146;7.012;2023-12-28T04:07:35;14.00;61.20
79030;DHT22;68511;51.146;7.012;2023-12-28T04:08:35;14.00;61.20
79030;DHT22;68511;51.146;7.012;2023-12-28T04:09:35;14.00;61.20
79030;DHT22;68511;51.146;7.012;2023-12-28T04:10:36;14.00;61.20
79030;DHT22;68511;51.146;7.012;2023-12-28T04:11:39;14.00;61.20
79030;DHT22;68511;51.146;7.012;2023-12-28T04:12:40;14.00;61.20
79030;DHT22;68511;51.146;7.012;2023-12-28T04:13:40;14.00;61.20
79030;DHT22;68511;51.146;7.012;2023-12-28T04:14:41;14.00;61.20
79030;DHT22;68511;51.146;7.012;2023-12-28T04:15:42;14.00;61.20
79030;DHT22;68511;51.146;7.012;2023-12-28T04:16:43;14.00;61.20
79030;DHT22;68511;51.146;7.012;2023-12-28T04:17:43;14.00;61.20
79030;DHT22;68511;51.146;7.012;2023-12-28T04:18:45;14.00;61.20
79030;DHT22;68511;51.146;7.012;2023-12-28T04:19:45;14.00;61.20
79030;DHT22;68511;51.146;7.012;2023-12-28T04:20:45;14.00;61.20
79030;DHT22;68511;51.146;7.012;2023-12-28T04:21:46;14.00;61.20
79030;DHT22;68511;51.146;7.012;2023-12-28T04:22:46;13.90;61.10
79030;DHT22;68511;51.146;7.012;2023-12-28T04:23:47;14.00;61.20
79030;DHT22;68511;51.146;7.012;2023-12-28T04:24:48;14.00;61.20
79030;DHT22;68511;51.146;7.012;2023-12-28T04:25:48;14.00;61.20
79030;DHT22;68511;51.146;7.012;2023-12-28T04:26:48;14.00;61.20
79030;DHT22;68511;51.146;7.012;2023-12-28T04:27:49;14.00;61.20
79030;DHT22;68511;51.146;7.012;2023-12-28T04:28:49;14.00;61.20
79030;DHT22;68511;51.146;7.012;2023-12-28T04:29:50;14.00;61.20
79030;DHT22;68511;51.146;7.012;2023-12-28T04:30:50;14.00;61.20
79030;DHT22;68511;51.146;7.012;2023-12-28T04:31:51;14.00;61.10
79030;DHT22;68511;51.146;7.012;2023-12-28T04:32:51;14.00;61.10
79030;DHT22;68511;51.146;7.012;2023-12-28T04:33:52;14.00;61.10
79030;DHT22;68511;51.146;7.012;2023-12-28T04:34:52;14.00;61.10
79030;DHT22;68511;51.146;7.012;2023-12-28T04:35:54;14.00;61.10
79030;DHT22;68511;51.146;7.012;2023-12-28T04:36:54;14.00;61.10
79030;DHT22;68511;51.146;7.012;2023-12-28T04:37:55;14.00;61.20
79030;DHT22;68511;51.146;7.012;2023-12-28T04:38:55;14.00;61.20
79030;DHT22;68511;51.146;7.012;2023-12-28T04:39:59;14.00;61.20
79030;DHT22;68511;51.146;7.012;2023-12-28T04:41:00;14.00;61.20
79030;DHT22;68511;51.146;7.012;2023-12-28T04:42:00;14.00;61.20
79030;DHT22;68511;51.146;7.012;2023-12-28T04:43:01;14.00;61.20
79030;DHT22;68511;51.146;7.012;2023-12-28T04:44:01;14.00;61.20
79030;DHT22;68511;51.146;7.012;2023-12-28T04:45:01;14.00;61.20
79030;DHT22;68511;51.146;7.012;2023-12-28T04:46:03;14.00;61.10
79030;DHT22;68511;51.146;7.012;2023-12-28T04:47:04;14.00;61.20
79030;DHT22;68511;51.146;7.012;2023-12-28T04:48:04;14.00;61.20
79030;DHT22;68511;51.146;7.012;2023-12-28T04:49:05;14.00;61.20
79030;DHT22;68511;51.146;7.012;2023-12-28T04:50:05;14.00;61.20
79030;DHT22;68511;51.146;7.012;2023-12-28T04:51:06;13.90;61.10
79030;DHT22;68511;51.146;7.012;2023-12-28T04:52:07;13.90;61.20
79030;DHT22;68511;51.146;7.012;2023-12-28T04:53:07;13.90;61.20
79030;DHT22;68511;51.146;7.012;2023-12-28T04:54:07;13.90;61.20
79030;DHT22;68511;51.146;7.012;2023-12-28T04:55:08;13.90;61.30
79030;DHT22;68511;51.146;7.012;2023-12-28T04:56:08;13.90;61.30
79030;DHT22;68511;51.146;7.012;2023-12-28T04:57:09;13.90;61.30
79030;DHT22;68511;51.146;7.012;2023-12-28T04:58:12;13.90;61.30
79030;DHT22;68511;51.146;7.012;2023-12-28T04:59:13;13.90;61.30
79030;DHT22;68511;51.146;7.012;2023-12-28T05:00:14;13.90;61.30
79030;DHT22;68511;51.146;7.012;2023-12-28T05:01:14;13.90;61.30
79030;DHT22;68511;51.146;7.012;2023-12-28T05:02:15;13.90;61.40
79030;DHT22;68511;51.146;7.012;2023-12-28T05:03:15;13.90;62.10
79030;DHT22;68511;51.146;7.012;2023-12-28T05:04:16;13.90;61.40
79030;DHT22;68511;51.146;7.012;2023-12-28T05:05:16;13.90;61.40
79030;DHT22;68511;51.146;7.012;2023-12-28T05:06:16;13.90;61.40
79030;DHT22;68511;51.146;7.012;2023-12-28T05:07:17;13.90;61.40
79030;DHT22;68511;51.146;7.012;2023-12-28T05:08:17;13.90;61.40
79030;DHT22;68511;51.146;7.012;2023-12-28T05:09:18;14.00;61.50
79030;DHT22;68511;51.146;7.012;2023-12-28T05:10:18;14.00;61.50
79030;DHT22;68511;51.146;7.012;2023-12-28T05:11:19;14.00;61.50
79030;DHT22;68511;51.146;7.012;2023-12-28T05:12:19;14.00;61.50
79030;DHT22;68511;51.146;7.012;2023-12-28T05:13:19;14.00;61.50
79030;DHT22;68511;51.146;7.012;2023-12-28T05:14:20;14.00;61.50
79030;DHT22;68511;51.146;7.012;2023-12-28T05:15:20;14.00;61.50
79030;DHT22;68511;51.146;7.012;2023-12-28T05:16:21;14.00;61.50
79030;DHT22;68511;51.146;7.012;2023-12-28T05:17:21;14.00;61.50
79030;DHT22;68511;51.146;7.012;2023-12-28T05:18:22;14.00;61.50
79030;DHT22;68511;51.146;7.012;2023-12-28T05:19:22;13.90;61.40
79030;DHT22;68511;51.146;7.012;2023-12-28T05:20:22;14.00;62.20
79030;DHT22;68511;51.146;7.012;2023-12-28T05:21:23;14.00;61.50
79030;DHT22;68511;51.146;7.012;2023-12-28T05:22:23;14.00;61.50
79030;DHT22;68511;51.146;7.012;2023-12-28T05:23:24;14.00;61.50
79030;DHT22;68511;51.146;7.012;2023-12-28T05:24:24;14.00;61.50
79030;DHT22;68511;51.146;7.012;2023-12-28T05:25:24;14.00;61.50
79030;DHT22;68511;51.146;7.012;2023-12-28T05:26:25;14.00;61.50
79030;DHT22;68511;51.146;7.012;2023-12-28T05:27:26;14.00;61.50
79030;DHT22;68511;51.146;7.012;2023-12-28T05:28:27;14.00;61.50
79030;DHT22;68511;51.146;7.012;2023-12-28T05:29:27;14.00;61.50
79030;DHT22;68511;51.146;7.012;2023-12-28T05:30:27;14.00;61.50
79030;DHT22;68511;51.146;7.012;2023-12-28T05:31:28;14.00;61.50
79030;DHT22;68511;51.146;7.012;2023-12-28T05:32:28;14.00;61.50
79030;DHT22;68511;51.146;7.012;2023-12-28T05:33:29;14.00;61.50
79030;DHT22;68511;51.146;7.012;2023-12-28T05:34:29;14.00;61.50
79030;DHT22;68511;51.146;7.012;2023-12-28T05:35:30;14.00;61.50
79030;DHT22;68511;51.146;7.012;2023-12-28T05:36:30;14.00;61.50
79030;DHT22;68511;51.146;7.012;2023-12-28T05:37:30;14.00;61.40
79030;DHT22;68511;51.146;7.012;2023-12-28T05:38:31;14.00;61.50
79030;DHT22;68511;51.146;7.012;2023-12-28T05:39:31;14.00;61.40
79030;DHT22;68511;51.146;7.012;2023-12-28T05:40:32;14.00;61.40
79030;DHT22;68511;51.146;7.012;2023-12-28T05:41:32;14.00;61.40
79030;DHT22;68511;51.146;7.012;2023-12-28T05:42:33;14.00;61.40
79030;DHT22;68511;51.146;7.012;2023-12-28T05:43:33;14.00;61.40
79030;DHT22;68511;51.146;7.012;2023-12-28T05:44:34;14.00;61.40
79030;DHT22;68511;51.146;7.012;2023-12-28T05:45:34;14.00;61.40
79030;DHT22;68511;51.146;7.012;2023-12-28T05:46:35;14.00;61.40
79030;DHT22;68511;51.146;7.012;2023-12-28T05:47:35;14.00;61.40
79030;DHT22;68511;51.146;7.012;2023-12-28T05:48:36;14.10;61.50
79030;DHT22;68511;51.146;7.012;2023-12-28T05:49:37;14.00;61.40
79030;DHT22;68511;51.146;7.012;2023-12-28T05:50:37;14.00;61.40
79030;DHT22;68511;51.146;7.012;2023-12-28T05:51:38;14.10;62.20
79030;DHT22;68511;51.146;7.012;2023-12-28T05:52:40;14.00;61.40
79030;DHT22;68511;51.146;7.012;2023-12-28T05:53:41;14.10;61.50
79030;DHT22;68511;51.146;7.012;2023-12-28T05:54:42;14.10;61.40
79030;DHT22;68511;51.146;7.012;2023-12-28T05:55:43;14.10;61.40
79030;DHT22;68511;51.146;7.012;2023-12-28T05:56:44;14.10;61.40
79030;DHT22;68511;51.146;7.012;2023-12-28T05:57:44;14.10;61.40
79030;DHT22;68511;51.146;7.012;2023-12-28T05:58:44;14.10;61.50
79030;DHT22;68511;51.146;7.012;2023-12-28T05:59:45;14.10;61.40
79030;DHT22;68511;51.146;7.012;2023-12-28T06:00:45;14.10;61.40
79030;DHT22;68511;51.146;7.012;2023-12-28T06:01:49;14.10;61.40
79030;DHT22;68511;51.146;7.012;2023-12-28T06:02:49;14.10;61.50
79030;DHT22;68511;51.146;7.012;2023-12-28T06:03:51;14.10;61.40
79030;DHT22;68511;51.146;7.012;2023-12-28T06:04:52;14.10;61.40
79030;DHT22;68511;51.146;7.012;2023-12-28T06:05:53;14.10;61.40
79030;DHT22;68511;51.146;7.012;2023-12-28T06:06:54;14.10;61.40
79030;DHT22;68511;51.146;7.012;2023-12-28T06:07:54;14.10;61.40
79030;DHT22;68511;51.146;7.012;2023-12-28T06:08:55;14.10;61.40
79030;DHT22;68511;51.146;7.012;2023-12-28T06:09:55;14.10;61.40
79030;DHT22;68511;51.146;7.012;2023-12-28T06:10:56;14.10;61.40
79030;DHT22;68511;51.146;7.012;2023-12-28T06:11:56;14.10;61.50
79030;DHT22;68511;51.146;7.012;2023-12-28T06:12:56;14.10;61.40
79030;DHT22;68511;51.146;7.012;2023-12-28T06:13:57;14.10;61.40
79030;DHT22;68511;51.146;7.012;2023-12-28T06:14:57;14.10;61.40
79030;DHT22;68511;51.146;7.012;2023-12-28T06:15:58;14.10;61.40
79030;DHT22;68511;51.146;7.012;2023-12-28T06:16:59;14.10;61.40
79030;DHT22;68511;51.146;7.012;2023-12-28T06:17:59;14.10;61.40
79030;DHT22;68511;51.146;7.012;2023-12-28T06:19:00;14.10;61.40
79030;DHT22;68511;51.146;7.012;2023-12-28T06:20:01;14.10;61.40
79030;DHT22;68511;51.146;7.012;2023-12-28T06:21:02;14.10;61.40
79030;DHT22;68511;51.146;7.012;2023-12-28T06:22:05;14.10;61.40
79030;DHT22;68511;51.146;7.012;2023-12-28T06:23:06;14.10;61.40
79030;DHT22;68511;51.146;7.012;2023-12-28T06:24:07;14.10;61.40
79030;DHT22;68511;51.146;7.012;2023-12-28T06:25:07;14.10;61.40
79030;DHT22;68511;51.146;7.012;2023-12-28T06:26:08;14.10;61.40